createdAt,value
2023-03-01T00:01:30.231Z,32.95
2023-03-01T00:03:59.289Z,29.45
2023-03-01T00:06:27.307Z,29.65
2023-03-01T00:08:54.507Z,39.83
2023-03-01T00:11:27.943Z,34.20
2023-03-01T00:13:57.923Z,30.02
2023-03-01T00:16:29.692Z,30.27
2023-03-01T00:18:58.213Z,29.27
2023-03-01T00:21:26.309Z,31.17
2023-03-01T00:23:54.507Z,30.20
2023-03-01T00:26:23.850Z,30.27
2023-03-01T00:28:51.400Z,28.75
2023-03-01T00:31:22.345Z,27.60
2023-03-01T00:33:49.868Z,27.77
2023-03-01T00:36:17.478Z,27.27
2023-03-01T00:38:46.590Z,28.48
2023-03-01T00:41:16.073Z,28.83
2023-03-01T00:43:46.345Z,31.98
2023-03-01T00:46:16.829Z,30.50
2023-03-01T00:48:44.497Z,28.73
2023-03-01T00:51:18.620Z,29.40
2023-03-01T00:53:46.804Z,29.30
2023-03-01T00:56:15.872Z,28.90
2023-03-01T00:58:44.914Z,28.33
2023-03-01T01:01:20.390Z,31.55
2023-03-01T01:03:52.642Z,29.65
2023-03-01T01:06:23.571Z,31.38
2023-03-01T01:08:52.431Z,33.80
2023-03-01T01:11:20.851Z,34.67
2023-03-01T01:13:48.791Z,39.60
2023-03-01T01:16:18.130Z,36.20
2023-03-01T01:18:45.772Z,34.28
2023-03-01T01:21:15.824Z,32.83
2023-03-01T01:23:44.960Z,31.33
2023-03-01T01:26:16.000Z,29.98
2023-03-01T01:28:43.241Z,31.83
2023-03-01T01:31:10.560Z,32.63
2023-03-01T01:33:38.526Z,29.08
2023-03-01T01:36:06.994Z,29.83
2023-03-01T01:38:34.770Z,34.55
2023-03-01T01:41:02.068Z,31.17
2023-03-01T01:43:33.934Z,32.50
2023-03-01T01:46:04.748Z,32.63
2023-03-01T01:48:44.486Z,36.40
2023-03-01T01:51:16.635Z,33.45
2023-03-01T01:53:46.896Z,31.60
2023-03-01T01:56:17.141Z,27.38
2023-03-01T01:58:45.530Z,29.30
2023-03-01T02:01:13.013Z,28.88
2023-03-01T02:03:43.431Z,27.55
2023-03-01T02:06:12.773Z,27.55
2023-03-01T02:08:42.571Z,26.23
2023-03-01T02:11:11.637Z,26.15
2023-03-01T02:13:38.983Z,30.80
2023-03-01T02:16:10.700Z,28.02
2023-03-01T02:18:39.391Z,27.65
2023-03-01T02:21:31.620Z,25.25
2023-03-01T02:24:04.984Z,27.60
2023-03-01T02:26:38.350Z,26.15
2023-03-01T02:29:06.785Z,28.92
2023-03-01T02:31:49.597Z,31.33
2023-03-01T02:34:20.970Z,28.42
2023-03-01T02:36:52.923Z,33.13
2023-03-01T02:39:26.607Z,27.30
2023-03-01T02:41:57.317Z,21.57
2023-03-01T02:44:24.549Z,25.98
2023-03-01T02:46:54.255Z,32.50
2023-03-01T02:49:31.998Z,30.88
2023-03-01T02:52:18.065Z,28.48
2023-03-01T02:55:06.274Z,29.67
2023-03-01T02:57:35.361Z,27.20
2023-03-01T03:00:09.039Z,26.33
2023-03-01T03:02:38.336Z,28.52
2023-03-01T03:05:18.986Z,29.77
2023-03-01T03:07:48.125Z,25.52
2023-03-01T03:10:20.562Z,28.25
2023-03-01T03:13:00.211Z,30.48
2023-03-01T03:15:30.149Z,29.13
2023-03-01T03:17:59.206Z,34.00
2023-03-01T03:20:29.284Z,33.80
2023-03-01T03:22:57.894Z,32.03
2023-03-01T03:25:26.659Z,31.63
2023-03-01T03:27:57.636Z,32.40
2023-03-01T03:30:28.072Z,32.63
2023-03-01T03:32:56.431Z,31.70
2023-03-01T03:35:33.904Z,30.52
2023-03-01T03:38:06.915Z,32.08
2023-03-01T03:40:37.351Z,26.58
2023-03-01T03:43:07.988Z,30.17
2023-03-01T03:45:36.286Z,28.40
2023-03-01T03:48:05.973Z,30.75
2023-03-01T03:50:33.876Z,30.50
2023-03-01T03:53:03.862Z,29.80
2023-03-01T03:55:31.700Z,28.30
2023-03-01T03:58:03.304Z,29.55
2023-03-01T04:00:30.815Z,27.00
2023-03-01T04:02:58.380Z,28.35
2023-03-01T04:05:26.150Z,27.42
2023-03-01T04:08:08.416Z,24.95
2023-03-01T04:10:38.728Z,30.17
2023-03-01T04:13:07.934Z,25.77
2023-03-01T04:15:35.307Z,26.23
2023-03-01T04:18:02.637Z,24.15
2023-03-01T04:20:34.660Z,26.63
2023-03-01T04:23:22.754Z,27.30
2023-03-01T04:25:54.706Z,26.90
2023-03-01T04:28:25.161Z,30.05
2023-03-01T04:30:53.836Z,27.30
2023-03-01T04:33:22.438Z,24.85
2023-03-01T04:35:50.522Z,29.45
2023-03-01T04:38:19.489Z,29.17
2023-03-01T04:40:46.740Z,28.23
2023-03-01T04:43:15.996Z,31.58
2023-03-01T04:45:44.072Z,29.30
2023-03-01T04:48:11.180Z,30.30
2023-03-01T04:50:38.427Z,26.63
2023-03-01T04:53:05.526Z,27.70
2023-03-01T04:55:32.799Z,26.08
2023-03-01T04:57:59.966Z,26.38
2023-03-01T05:00:27.598Z,27.38
2023-03-01T05:02:58.034Z,25.02
2023-03-01T05:05:27.680Z,25.83
2023-03-01T05:07:57.751Z,27.83
2023-03-01T05:10:25.801Z,26.25
2023-03-01T05:12:54.573Z,28.30
2023-03-01T05:15:23.042Z,27.33
2023-03-01T05:17:50.923Z,23.85
2023-03-01T05:20:18.490Z,23.45
2023-03-01T05:22:45.795Z,24.88
2023-03-01T05:25:15.056Z,28.15
2023-03-01T05:27:42.445Z,24.63
2023-03-01T05:30:18.647Z,26.70
2023-03-01T05:32:50.228Z,24.70
2023-03-01T05:35:19.301Z,25.38
2023-03-01T05:37:49.725Z,24.27
2023-03-01T05:40:20.641Z,25.45
2023-03-01T05:42:53.632Z,25.05
2023-03-01T05:45:21.578Z,27.83
2023-03-01T05:47:50.506Z,24.20
2023-03-01T05:50:22.566Z,29.88
2023-03-01T05:52:53.884Z,28.73
2023-03-01T05:55:22.750Z,28.27
2023-03-01T05:57:51.035Z,27.02
2023-03-01T06:00:20.579Z,27.38
2023-03-01T06:02:47.734Z,26.05
2023-03-01T06:05:16.081Z,27.77
2023-03-01T06:07:43.897Z,25.70
2023-03-01T06:10:13.501Z,23.30
2023-03-01T06:12:43.268Z,22.90
2023-03-01T06:15:13.069Z,24.52
2023-03-01T06:17:42.433Z,23.90
2023-03-01T06:20:16.072Z,27.85
2023-03-01T06:22:44.831Z,23.48
2023-03-01T06:25:14.918Z,27.92
2023-03-01T06:27:43.371Z,24.02
2023-03-01T06:30:13.593Z,23.23
2023-03-01T06:32:43.878Z,23.70
2023-03-01T06:35:13.776Z,21.58
2023-03-01T06:37:42.157Z,23.55
2023-03-01T06:40:12.758Z,24.17
2023-03-01T06:42:42.122Z,29.10
2023-03-01T06:45:10.380Z,27.48
2023-03-01T06:47:37.730Z,24.45
2023-03-01T06:50:05.614Z,28.20
2023-03-01T06:52:33.227Z,28.92
2023-03-01T06:55:00.781Z,23.52
2023-03-01T06:57:28.293Z,21.65
2023-03-01T06:59:55.726Z,26.38
2023-03-01T07:02:23.241Z,23.52
2023-03-01T07:04:52.189Z,23.33
2023-03-01T07:07:20.139Z,25.70
2023-03-01T07:09:48.000Z,28.73
2023-03-01T07:12:15.187Z,22.67
2023-03-01T07:14:42.481Z,22.00
2023-03-01T07:17:09.607Z,22.67
2023-03-01T07:19:36.816Z,23.10
2023-03-01T07:22:05.581Z,24.30
2023-03-01T07:24:32.761Z,20.88
2023-03-01T07:26:59.923Z,24.38
2023-03-01T07:29:27.203Z,22.50
2023-03-01T07:31:54.373Z,24.20
2023-03-01T07:34:21.944Z,24.58
2023-03-01T07:36:49.597Z,21.77
2023-03-01T07:39:18.590Z,25.73
2023-03-01T07:41:46.980Z,22.52
2023-03-01T07:44:14.398Z,26.73
2023-03-01T07:46:41.430Z,25.35
2023-03-01T07:49:08.977Z,22.45
2023-03-01T07:51:36.206Z,24.90
2023-03-01T07:54:03.437Z,26.17
2023-03-01T07:56:30.956Z,23.60
2023-03-01T07:59:00.914Z,24.77
2023-03-01T08:01:28.154Z,23.10
2023-03-01T08:03:55.287Z,24.75
2023-03-01T08:06:22.457Z,25.25
2023-03-01T08:08:49.668Z,26.50
2023-03-01T08:11:17.080Z,27.85
2023-03-01T08:13:44.882Z,24.85
2023-03-01T08:16:14.699Z,25.33
2023-03-01T08:18:42.365Z,25.55
2023-03-01T08:21:13.104Z,28.95
2023-03-01T08:23:40.820Z,25.70
2023-03-01T08:26:11.231Z,26.33
2023-03-01T08:28:39.061Z,28.65
2023-03-01T08:31:28.906Z,25.65
2023-03-01T08:33:59.474Z,28.35
2023-03-01T08:36:30.008Z,24.60
2023-03-01T08:39:00.355Z,25.45
2023-03-01T08:41:28.016Z,32.08
2023-03-01T08:43:59.806Z,26.35
2023-03-01T08:46:28.112Z,24.85
2023-03-01T08:48:55.928Z,26.58
2023-03-01T08:51:24.257Z,26.00
2023-03-01T08:53:51.413Z,25.38
2023-03-01T08:56:20.524Z,24.20
2023-03-01T08:58:49.720Z,30.98
2023-03-01T09:01:19.945Z,24.92
2023-03-01T09:03:48.085Z,27.63
2023-03-01T09:06:16.834Z,26.95
2023-03-01T09:08:46.652Z,29.48
2023-03-01T09:11:17.977Z,25.67
2023-03-01T09:13:46.454Z,30.75
2023-03-01T09:16:15.964Z,27.55
2023-03-01T09:18:43.356Z,29.38
2023-03-01T09:21:14.826Z,28.55
2023-03-01T09:23:44.140Z,34.95
2023-03-01T09:26:15.575Z,26.25
2023-03-01T09:28:42.902Z,26.92
2023-03-01T09:31:10.164Z,28.25
2023-03-01T09:33:37.322Z,28.10
2023-03-01T09:36:08.328Z,25.13
2023-03-01T09:38:35.837Z,26.10
2023-03-01T09:41:03.352Z,24.88
2023-03-01T09:43:39.871Z,25.98
2023-03-01T09:46:10.977Z,24.10
2023-03-01T09:49:05.334Z,25.08
2023-03-01T09:51:37.213Z,34.53
2023-03-01T09:54:06.540Z,27.73
2023-03-01T09:56:45.112Z,27.98
2023-03-01T09:59:27.176Z,22.88
2023-03-01T10:02:05.636Z,23.27
2023-03-01T10:04:41.520Z,25.00
2023-03-01T10:07:11.931Z,23.08
2023-03-01T10:09:42.476Z,23.92
2023-03-01T10:12:13.659Z,27.83
2023-03-01T10:14:52.879Z,24.73
2023-03-01T10:17:31.775Z,29.10
2023-03-01T10:20:17.136Z,24.42
2023-03-01T10:22:47.699Z,24.27
2023-03-01T10:25:16.710Z,25.42
2023-03-01T10:27:54.975Z,25.38
2023-03-01T10:30:31.145Z,22.15
2023-03-01T10:32:59.761Z,29.17
2023-03-01T10:35:30.395Z,27.20
2023-03-01T10:38:08.395Z,26.13
2023-03-01T10:40:37.346Z,29.33
2023-03-01T10:43:06.911Z,24.83
2023-03-01T10:45:39.029Z,25.20
2023-03-01T10:48:16.743Z,29.25
2023-03-01T10:50:47.950Z,30.35
2023-03-01T10:53:25.925Z,26.40
2023-03-01T10:56:10.771Z,24.60
2023-03-01T10:58:41.062Z,28.13
2023-03-01T11:01:28.540Z,27.77
2023-03-01T11:04:06.417Z,29.63
2023-03-01T11:06:35.378Z,32.45
2023-03-01T11:09:17.109Z,29.27
2023-03-01T11:11:44.422Z,28.63
2023-03-01T11:14:26.850Z,30.27
2023-03-01T11:17:34.670Z,30.02
2023-03-01T11:20:29.148Z,33.22
2023-03-01T11:23:02.499Z,31.67
2023-03-01T11:25:42.470Z,29.85
2023-03-01T11:28:15.736Z,34.83
2023-03-01T11:31:08.942Z,35.42
2023-03-01T11:33:46.199Z,31.88
2023-03-01T11:36:14.645Z,34.63
2023-03-01T11:38:42.493Z,36.90
2023-03-01T11:41:14.669Z,31.08
2023-03-01T11:43:53.633Z,33.30
2023-03-01T11:46:48.623Z,29.60
2023-03-01T11:49:32.653Z,31.30
2023-03-01T11:52:20.095Z,31.25
2023-03-01T11:54:56.523Z,36.90
2023-03-01T11:57:51.390Z,36.35
2023-03-01T12:00:44.088Z,34.58
2023-03-01T12:03:31.508Z,34.33
2023-03-01T12:06:23.980Z,31.80
2023-03-01T12:09:30.921Z,32.63
2023-03-01T12:12:21.234Z,35.60
2023-03-01T12:15:05.329Z,41.78
2023-03-01T12:18:08.670Z,25.50
2023-03-01T12:21:03.292Z,28.77
2023-03-01T12:23:57.727Z,32.22
2023-03-01T12:26:45.706Z,33.95
2023-03-01T12:29:32.727Z,29.58
2023-03-01T12:32:16.045Z,30.60
2023-03-01T12:34:52.362Z,31.67
2023-03-01T12:37:46.844Z,32.35
2023-03-01T12:40:18.669Z,29.63
2023-03-01T12:43:06.050Z,28.92
2023-03-01T12:45:54.166Z,33.72
2023-03-01T12:48:26.998Z,33.03
2023-03-01T12:50:56.559Z,32.13
2023-03-01T12:53:30.672Z,33.00
2023-03-01T12:56:03.529Z,33.08
2023-03-01T12:58:47.429Z,32.03
2023-03-01T13:01:27.749Z,32.90
2023-03-01T13:04:01.048Z,30.67
2023-03-01T13:06:56.994Z,29.70
2023-03-01T13:09:44.910Z,32.92
2023-03-01T13:12:47.611Z,29.85
2023-03-01T13:15:36.194Z,35.17
2023-03-01T13:18:05.783Z,31.70
2023-03-01T13:20:49.009Z,35.13
2023-03-01T13:23:23.690Z,32.78
2023-03-01T13:26:12.976Z,34.90
2023-03-01T13:28:48.474Z,33.78
2023-03-01T13:31:16.950Z,33.58
2023-03-01T13:33:48.652Z,35.10
2023-03-01T13:36:37.184Z,32.22
2023-03-01T13:39:27.856Z,36.45
2023-03-01T13:41:58.639Z,36.72
2023-03-01T13:44:27.205Z,35.75
2023-03-01T13:46:59.727Z,32.13
2023-03-01T13:49:45.368Z,30.27
2023-03-01T13:52:37.138Z,30.65
2023-03-01T13:55:17.874Z,30.13
2023-03-01T13:57:49.340Z,33.30
2023-03-01T14:00:39.122Z,33.08
2023-03-01T14:03:07.982Z,35.95
2023-03-01T14:05:37.150Z,32.28
2023-03-01T14:08:06.221Z,29.27
2023-03-01T14:10:51.042Z,31.73
2023-03-01T14:13:30.471Z,29.27
2023-03-01T14:16:12.360Z,33.17
2023-03-01T14:18:53.619Z,34.88
2023-03-01T14:21:21.699Z,33.15
2023-03-01T14:23:49.967Z,28.75
2023-03-01T14:26:22.922Z,33.45
2023-03-01T14:28:51.345Z,33.83
2023-03-01T14:31:52.104Z,31.00
2023-03-01T14:34:24.431Z,34.60
2023-03-01T14:36:51.748Z,34.42
2023-03-01T14:39:22.179Z,34.90
2023-03-01T14:41:49.635Z,29.90
2023-03-01T14:44:24.117Z,35.65
2023-03-01T14:49:28.293Z,36.58
2023-03-01T14:52:03.624Z,33.88
2023-03-01T14:54:41.996Z,31.90
2023-03-01T14:57:19.333Z,39.63
2023-03-01T14:59:48.834Z,33.33
2023-03-01T15:02:20.429Z,35.40
2023-03-01T15:04:57.729Z,39.75
2023-03-01T15:07:31.262Z,32.42
2023-03-01T15:09:59.924Z,38.55
2023-03-01T15:12:30.351Z,42.90
2023-03-01T15:15:04.450Z,34.15
2023-03-01T15:17:36.762Z,34.17
2023-03-01T15:20:07.869Z,38.92
2023-03-01T15:22:37.029Z,36.80
2023-03-01T15:25:04.668Z,36.53
2023-03-01T15:27:31.861Z,34.72
2023-03-01T15:30:01.389Z,34.80
2023-03-01T15:32:32.131Z,34.38
2023-03-01T15:35:00.854Z,34.45
2023-03-01T15:37:49.524Z,35.08
2023-03-01T15:40:32.629Z,33.22
2023-03-01T15:43:01.566Z,34.30
2023-03-01T15:45:31.478Z,35.88
2023-03-01T15:48:04.657Z,42.55
2023-03-01T15:50:35.815Z,38.70
2023-03-01T15:53:08.386Z,36.72
2023-03-01T15:55:35.654Z,30.67
2023-03-01T15:58:04.960Z,35.22
2023-03-01T16:00:32.318Z,33.22
2023-03-01T16:03:00.218Z,31.98
2023-03-01T16:05:32.546Z,39.17
2023-03-01T16:08:00.036Z,34.97
2023-03-01T16:10:27.496Z,37.28
2023-03-01T16:12:54.881Z,38.90
2023-03-01T16:15:25.375Z,36.97
2023-03-01T16:17:53.227Z,36.55
2023-03-01T16:20:29.091Z,39.10
2023-03-01T16:23:02.953Z,33.22
2023-03-01T16:25:31.833Z,40.00
2023-03-01T16:28:01.972Z,36.50
2023-03-01T16:30:29.342Z,40.92
2023-03-01T16:32:56.924Z,39.40
2023-03-01T16:35:24.517Z,37.17
2023-03-01T16:37:53.672Z,33.83
2023-03-01T16:40:29.151Z,37.58
2023-03-01T16:42:58.813Z,34.42
2023-03-01T16:45:27.116Z,35.92
2023-03-01T16:47:56.015Z,38.95
2023-03-01T16:50:24.001Z,33.85
2023-03-01T16:52:51.637Z,36.72
2023-03-01T16:55:19.345Z,35.92
2023-03-01T16:57:46.565Z,46.97
2023-03-01T17:00:14.862Z,41.63
2023-03-01T17:02:43.092Z,47.28
2023-03-01T17:05:12.879Z,42.58
2023-03-01T17:07:40.602Z,40.58
2023-03-01T17:10:10.648Z,38.33
2023-03-01T17:12:38.801Z,37.88
2023-03-01T17:15:08.030Z,44.15
2023-03-01T17:17:35.888Z,40.70
2023-03-01T17:20:04.930Z,41.70
2023-03-01T17:22:32.167Z,46.30
2023-03-01T17:24:59.318Z,38.40
2023-03-01T17:27:27.186Z,37.13
2023-03-01T17:29:54.975Z,39.70
2023-03-01T17:32:23.558Z,44.97
2023-03-01T17:34:51.073Z,37.42
2023-03-01T17:37:18.592Z,44.03
2023-03-01T17:39:45.925Z,40.10
2023-03-01T17:42:13.412Z,43.38
2023-03-01T17:44:42.349Z,38.67
2023-03-01T17:47:11.144Z,38.53
2023-03-01T17:49:38.379Z,38.72
2023-03-01T17:52:06.399Z,41.15
2023-03-01T17:54:34.520Z,37.85
2023-03-01T17:57:02.304Z,42.80
2023-03-01T17:59:32.959Z,37.97
2023-03-01T18:02:01.916Z,43.15
2023-03-01T18:04:35.325Z,38.70
2023-03-01T18:07:02.768Z,40.38
2023-03-01T18:09:30.834Z,42.85
2023-03-01T18:11:59.162Z,43.17
2023-03-01T18:14:29.912Z,48.10
2023-03-01T18:16:57.462Z,39.55
2023-03-01T18:19:25.103Z,41.85
2023-03-01T18:21:52.384Z,47.08
2023-03-01T18:24:20.013Z,46.58
2023-03-01T18:26:47.708Z,50.72
2023-03-01T18:29:15.185Z,45.53
2023-03-01T18:31:42.768Z,48.90
2023-03-01T18:34:12.015Z,44.13
2023-03-01T18:36:41.377Z,44.38
2023-03-01T18:39:09.176Z,46.42
2023-03-01T18:41:37.673Z,47.20
2023-03-01T18:44:05.792Z,49.70
2023-03-01T18:46:36.261Z,46.40
2023-03-01T18:49:05.295Z,48.85
2023-03-01T18:51:35.402Z,47.63
2023-03-01T18:54:03.126Z,48.92
2023-03-01T18:56:32.592Z,49.70
2023-03-01T18:59:00.790Z,52.28
2023-03-01T19:01:30.229Z,50.00
2023-03-01T19:03:58.437Z,48.67
2023-03-01T19:06:33.615Z,44.78
2023-03-01T19:09:01.594Z,49.35
2023-03-01T19:11:31.345Z,51.28
2023-03-01T19:14:00.452Z,51.53
2023-03-01T19:16:31.414Z,49.05
2023-03-01T19:19:01.209Z,52.90
2023-03-01T19:21:31.781Z,57.63
2023-03-01T19:24:02.544Z,54.17
2023-03-01T19:26:30.805Z,49.75
2023-03-01T19:28:58.504Z,50.95
2023-03-01T19:31:28.933Z,51.55
2023-03-01T19:34:11.357Z,51.10
2023-03-01T19:36:42.797Z,49.80
2023-03-01T19:39:11.362Z,48.10
2023-03-01T19:41:38.521Z,50.03
2023-03-01T19:44:06.128Z,50.35
2023-03-01T19:46:34.425Z,51.03
2023-03-01T19:49:03.653Z,52.47
2023-03-01T19:51:35.649Z,56.22
2023-03-01T19:54:03.736Z,59.03
2023-03-01T19:56:31.981Z,57.05
2023-03-01T19:59:00.780Z,51.42
2023-03-01T20:01:30.089Z,53.90
2023-03-01T20:03:57.637Z,60.83
2023-03-01T20:06:25.868Z,54.70
2023-03-01T20:08:53.260Z,52.83
2023-03-01T20:11:21.618Z,54.75
2023-03-01T20:13:48.912Z,50.97
2023-03-01T20:16:18.906Z,53.67
2023-03-01T20:18:46.922Z,54.05
2023-03-01T20:21:30.320Z,59.10
2023-03-01T20:23:57.447Z,54.55
2023-03-01T20:26:25.830Z,60.38
2023-03-01T20:28:55.470Z,55.42
2023-03-01T20:31:29.560Z,52.30
2023-03-01T20:33:58.088Z,52.88
2023-03-01T20:36:26.142Z,57.40
2023-03-01T20:38:54.901Z,57.20
2023-03-01T20:41:26.322Z,59.00
2023-03-01T20:43:56.638Z,53.60
2023-03-01T20:46:25.808Z,49.95
2023-03-01T20:48:54.348Z,55.53
2023-03-01T20:51:22.051Z,54.22
2023-03-01T20:53:49.768Z,58.28
2023-03-01T20:56:18.671Z,54.67
2023-03-01T20:59:04.549Z,50.75
2023-03-01T21:01:32.512Z,57.55
2023-03-01T21:03:59.841Z,56.25
2023-03-01T21:06:27.256Z,63.28
2023-03-01T21:08:55.680Z,54.38
2023-03-01T21:11:27.122Z,55.70
2023-03-01T21:13:54.686Z,57.42
2023-03-01T21:16:23.253Z,56.00
2023-03-01T21:18:50.580Z,59.28
2023-03-01T21:21:21.034Z,55.83
2023-03-01T21:23:48.613Z,59.25
2023-03-01T21:26:17.315Z,54.65
2023-03-01T21:28:44.966Z,52.90
2023-03-01T21:31:12.441Z,55.38
2023-03-01T21:33:41.290Z,59.22
2023-03-01T21:36:10.276Z,58.50
2023-03-01T21:38:40.773Z,53.85
2023-03-01T21:41:12.205Z,56.97
2023-03-01T21:43:42.002Z,60.90
2023-03-01T21:46:13.150Z,58.03
2023-03-01T21:48:44.100Z,55.58
2023-03-01T21:51:15.105Z,57.45
2023-03-01T21:53:43.278Z,58.20
2023-03-01T21:56:15.522Z,56.95
2023-03-01T21:58:42.748Z,58.35
2023-03-01T22:01:13.760Z,61.05
2023-03-01T22:03:48.696Z,58.92
2023-03-01T22:06:23.057Z,60.20
2023-03-01T22:08:55.815Z,57.20
2023-03-01T22:11:26.147Z,63.15
2023-03-01T22:13:55.726Z,56.88
2023-03-01T22:16:27.654Z,58.95
2023-03-01T22:18:55.257Z,56.75
2023-03-01T22:21:24.719Z,62.03
2023-03-01T22:23:53.391Z,57.55
2023-03-01T22:26:39.742Z,57.58
2023-03-01T22:29:11.910Z,60.90
2023-03-01T22:31:41.018Z,58.72
2023-03-01T22:34:09.048Z,59.83
2023-03-01T22:36:36.341Z,60.28
2023-03-01T22:39:04.497Z,61.38
2023-03-01T22:41:37.107Z,60.08
2023-03-01T22:44:04.652Z,58.40
2023-03-01T22:46:32.349Z,57.20
2023-03-01T22:48:59.623Z,55.10
2023-03-01T22:51:29.825Z,63.70
2023-03-01T22:53:57.788Z,59.42
2023-03-01T22:56:29.405Z,61.17
2023-03-01T22:58:59.417Z,61.03
2023-03-01T23:01:27.793Z,61.35
2023-03-01T23:03:55.453Z,58.97
2023-03-01T23:06:23.904Z,59.83
2023-03-01T23:08:54.892Z,61.15
2023-03-01T23:11:24.285Z,55.05
2023-03-01T23:13:52.357Z,56.80
2023-03-01T23:16:20.445Z,57.13
2023-03-01T23:18:47.812Z,60.63
2023-03-01T23:21:17.973Z,60.95
2023-03-01T23:23:47.297Z,59.42
2023-03-01T23:26:16.022Z,63.80
2023-03-01T23:28:43.120Z,61.35
2023-03-01T23:31:13.869Z,63.42
2023-03-01T23:33:43.397Z,59.45
2023-03-01T23:36:18.363Z,57.67
2023-03-01T23:38:47.508Z,58.65
2023-03-01T23:41:19.009Z,59.17
2023-03-01T23:43:47.517Z,58.58
2023-03-01T23:46:16.410Z,61.78
2023-03-01T23:48:45.486Z,56.85
2023-03-01T23:51:13.678Z,56.70
2023-03-01T23:53:44.059Z,52.60
2023-03-01T23:56:13.577Z,57.80
2023-03-01T23:58:41.094Z,50.85
